createdAt,value
2023-02-19T00:00:50.786Z,234.74
2023-02-19T00:01:50.808Z,232.80
2023-02-19T00:02:50.885Z,234.64
2023-02-19T00:03:51.072Z,235.79
2023-02-19T00:04:51.008Z,234.19
2023-02-19T00:05:51.049Z,232.99
2023-02-19T00:06:51.178Z,233.10
2023-02-19T00:07:51.198Z,234.05
2023-02-19T00:08:51.275Z,233.59
2023-02-19T00:09:51.321Z,232.14
2023-02-19T00:10:51.376Z,233.28
2023-02-19T00:11:51.490Z,233.03
2023-02-19T00:12:51.520Z,231.81
2023-02-19T00:13:51.562Z,236.40
2023-02-19T00:14:51.605Z,233.14
2023-02-19T00:15:51.699Z,234.03
2023-02-19T00:16:51.751Z,235.11
2023-02-19T00:17:51.826Z,233.83
2023-02-19T00:18:51.886Z,235.54
2023-02-19T00:19:51.952Z,232.97
2023-02-19T00:20:51.999Z,234.69
2023-02-19T00:21:52.058Z,233.00
2023-02-19T00:22:52.155Z,235.29
2023-02-19T00:23:52.209Z,234.57
2023-02-19T00:24:52.273Z,230.89
2023-02-19T00:25:52.331Z,235.75
2023-02-19T00:26:52.421Z,234.52
2023-02-19T00:27:52.472Z,232.17
2023-02-19T00:28:52.532Z,233.16
2023-02-19T00:29:52.614Z,233.24
2023-02-19T00:30:52.660Z,233.26
2023-02-19T00:31:52.851Z,231.45
2023-02-19T00:32:52.824Z,236.44
2023-02-19T00:33:52.824Z,233.91
2023-02-19T00:34:52.911Z,234.44
2023-02-19T00:35:53.062Z,233.45
2023-02-19T00:36:53.051Z,230.14
2023-02-19T00:37:53.119Z,232.65
2023-02-19T00:38:53.182Z,232.85
2023-02-19T00:39:53.268Z,236.19
2023-02-19T00:40:53.295Z,233.64
2023-02-19T00:41:53.377Z,233.27
2023-02-19T00:42:53.411Z,230.50
2023-02-19T00:43:53.483Z,231.98
2023-02-19T00:44:53.560Z,233.42
2023-02-19T00:45:53.610Z,235.16
2023-02-19T00:46:53.672Z,234.85
2023-02-19T00:47:53.762Z,232.93
2023-02-19T00:48:53.800Z,233.92
2023-02-19T00:49:53.883Z,232.69
2023-02-19T00:50:53.944Z,234.48
2023-02-19T00:51:54.031Z,234.35
2023-02-19T00:52:54.071Z,234.03
2023-02-19T00:53:54.140Z,235.45
2023-02-19T00:54:54.226Z,233.67
2023-02-19T00:55:54.261Z,235.03
2023-02-19T00:56:54.385Z,235.48
2023-02-19T00:57:54.393Z,232.48
2023-02-19T00:58:54.445Z,233.77
2023-02-19T00:59:54.528Z,233.65
2023-02-19T01:00:54.563Z,232.84
2023-02-19T01:01:54.728Z,234.36
2023-02-19T01:02:54.730Z,234.57
2023-02-19T01:03:54.793Z,233.14
2023-02-19T01:04:54.898Z,235.19
2023-02-19T01:05:54.937Z,232.70
2023-02-19T01:06:54.964Z,232.18
2023-02-19T01:07:55.043Z,232.13
2023-02-19T01:08:55.090Z,233.96
2023-02-19T01:09:55.135Z,235.15
2023-02-19T01:10:55.219Z,233.18
2023-02-19T01:11:55.309Z,232.16
2023-02-19T01:12:55.339Z,232.86
2023-02-19T01:13:55.393Z,232.98
2023-02-19T01:14:55.453Z,233.11
2023-02-19T01:15:55.543Z,231.92
2023-02-19T01:16:55.581Z,233.84
2023-02-19T01:17:55.629Z,232.95
2023-02-19T01:18:55.740Z,232.51
2023-02-19T01:19:55.798Z,233.63
2023-02-19T01:20:55.823Z,235.39
2023-02-19T01:21:55.889Z,235.29
2023-02-19T01:22:55.961Z,232.43
2023-02-19T01:23:56.050Z,233.93
2023-02-19T01:24:56.105Z,230.62
2023-02-19T01:25:56.147Z,232.48
2023-02-19T01:26:56.274Z,234.84
2023-02-19T01:27:56.273Z,231.34
2023-02-19T01:28:56.307Z,231.02
2023-02-19T01:29:56.377Z,231.90
2023-02-19T01:30:56.456Z,230.69
2023-02-19T01:31:56.594Z,230.64
2023-02-19T01:32:56.581Z,229.21
2023-02-19T01:33:56.658Z,232.29
2023-02-19T01:34:56.700Z,231.94
2023-02-19T01:35:56.769Z,228.18
2023-02-19T01:36:56.811Z,227.26
2023-02-19T01:37:56.883Z,229.13
2023-02-19T01:38:56.924Z,229.96
2023-02-19T01:39:57.005Z,229.57
2023-02-19T01:40:57.082Z,229.08
2023-02-19T01:41:57.152Z,228.79
2023-02-19T01:42:57.158Z,228.69
2023-02-19T01:43:57.234Z,227.08
2023-02-19T01:44:57.363Z,229.60
2023-02-19T01:45:57.381Z,227.94
2023-02-19T01:46:57.461Z,228.09
2023-02-19T01:47:57.501Z,228.86
2023-02-19T01:48:57.549Z,228.91
2023-02-19T01:49:57.624Z,230.58
2023-02-19T01:50:57.655Z,229.25
2023-02-19T01:51:57.718Z,228.94
2023-02-19T01:52:57.826Z,225.07
2023-02-19T01:53:57.838Z,226.00
2023-02-19T01:54:57.906Z,228.46
2023-02-19T01:55:57.973Z,226.65
2023-02-19T01:56:58.063Z,228.62
2023-02-19T01:57:58.109Z,224.75
2023-02-19T01:58:58.185Z,229.88
2023-02-19T01:59:58.272Z,226.85
2023-02-19T02:00:58.351Z,229.42
2023-02-19T02:01:58.446Z,232.25
2023-02-19T02:02:58.429Z,228.58
2023-02-19T02:03:58.500Z,230.42
2023-02-19T02:04:58.558Z,227.43
2023-02-19T02:05:58.620Z,228.68
2023-02-19T02:06:58.672Z,225.42
2023-02-19T02:07:58.738Z,228.82
2023-02-19T02:08:58.821Z,229.03
2023-02-19T02:09:58.850Z,230.72
2023-02-19T02:10:58.956Z,230.81
2023-02-19T02:11:58.995Z,227.73
2023-02-19T02:12:59.080Z,226.55
2023-02-19T02:13:59.157Z,229.14
2023-02-19T02:14:59.202Z,227.96
2023-02-19T02:15:59.313Z,226.83
2023-02-19T02:16:59.353Z,228.33
2023-02-19T02:17:59.390Z,225.50
2023-02-19T02:18:59.430Z,226.97
2023-02-19T02:19:59.518Z,226.94
2023-02-19T02:20:59.544Z,229.46
2023-02-19T02:21:59.658Z,228.17
2023-02-19T02:22:59.671Z,229.04
2023-02-19T02:23:59.726Z,225.48
2023-02-19T02:24:59.774Z,230.46
2023-02-19T02:25:59.809Z,229.30
2023-02-19T02:26:59.914Z,227.49
2023-02-19T02:27:59.961Z,228.40
2023-02-19T02:29:00.021Z,227.86
2023-02-19T02:30:00.133Z,230.20
2023-02-19T02:31:00.204Z,226.53
2023-02-19T02:32:00.361Z,227.18
2023-02-19T02:33:00.289Z,228.34
2023-02-19T02:34:00.361Z,228.01
2023-02-19T02:35:00.411Z,226.46
2023-02-19T02:36:00.489Z,224.81
2023-02-19T02:37:00.566Z,226.90
2023-02-19T02:38:00.601Z,226.52
2023-02-19T02:39:00.681Z,227.65
2023-02-19T02:40:00.747Z,227.74
2023-02-19T02:41:00.777Z,226.84
2023-02-19T02:42:00.854Z,228.84
2023-02-19T02:43:00.884Z,226.06
2023-02-19T02:44:00.976Z,226.10
2023-02-19T02:45:01.017Z,229.10
2023-02-19T02:46:01.133Z,229.47
2023-02-19T02:47:01.404Z,229.37
2023-02-19T02:48:01.201Z,229.17
2023-02-19T02:49:01.274Z,225.84
2023-02-19T02:50:01.327Z,227.00
2023-02-19T02:51:01.355Z,227.55
2023-02-19T02:52:01.447Z,227.48
2023-02-19T02:53:01.532Z,227.84
2023-02-19T02:54:01.555Z,227.54
2023-02-19T02:55:02.742Z,224.52
2023-02-19T03:12:02.628Z,226.77
2023-02-19T03:13:02.707Z,226.14
2023-02-19T03:14:02.775Z,226.70
2023-02-19T03:15:02.834Z,224.93
2023-02-19T03:16:02.882Z,225.25
2023-02-19T03:17:02.951Z,227.56
2023-02-19T03:18:03.018Z,229.18
2023-02-19T03:19:03.032Z,225.30
2023-02-19T03:20:03.141Z,227.98
2023-02-19T03:21:03.161Z,229.78
2023-02-19T03:22:03.205Z,228.38
2023-02-19T03:23:03.275Z,227.14
2023-02-19T03:24:03.376Z,226.88
2023-02-19T03:25:03.386Z,228.32
2023-02-19T03:26:03.485Z,225.51
2023-02-19T03:27:03.532Z,227.61
2023-02-19T03:28:03.636Z,228.63
2023-02-19T03:29:03.661Z,223.41
2023-02-19T03:30:03.788Z,223.37
2023-02-19T03:31:03.843Z,224.62
2023-02-19T03:32:03.922Z,227.98
2023-02-19T03:33:03.909Z,221.23
2023-02-19T03:34:03.957Z,225.59
2023-02-19T03:35:04.028Z,225.37
2023-02-19T03:36:04.094Z,225.01
2023-02-19T03:37:04.476Z,227.00
2023-02-19T03:38:04.217Z,224.07
2023-02-19T03:39:04.288Z,224.95
2023-02-19T03:40:04.337Z,222.68
2023-02-19T03:41:04.390Z,220.93
2023-02-19T03:42:04.447Z,225.50
2023-02-19T03:43:04.541Z,222.49
2023-02-19T03:44:04.611Z,226.10
2023-02-19T03:45:04.645Z,225.10
2023-02-19T03:46:04.758Z,224.49
2023-02-19T03:47:04.762Z,224.16
2023-02-19T03:48:04.856Z,221.85
2023-02-19T03:49:04.916Z,221.12
2023-02-19T03:50:05.028Z,222.11
2023-02-19T03:51:05.035Z,221.60
2023-02-19T03:52:05.116Z,222.90
2023-02-19T03:53:05.160Z,222.60
2023-02-19T03:54:05.229Z,220.31
2023-02-19T03:55:05.305Z,222.76
2023-02-19T03:56:05.360Z,222.01
2023-02-19T03:57:05.423Z,221.46
2023-02-19T03:59:05.553Z,223.21
2023-02-19T04:00:05.627Z,220.74
2023-02-19T04:01:05.661Z,221.83
2023-02-19T04:02:05.717Z,219.08
2023-02-19T04:03:05.793Z,220.38
2023-02-19T04:04:05.829Z,217.95
2023-02-19T04:05:05.884Z,216.84
2023-02-19T04:07:06.012Z,220.46
2023-02-19T04:08:06.072Z,221.51
2023-02-19T04:09:06.138Z,220.28
2023-02-19T04:10:06.193Z,218.86
2023-02-19T04:11:06.247Z,218.43
2023-02-19T04:12:06.343Z,217.52
2023-02-19T04:13:06.395Z,217.97
2023-02-19T04:14:06.466Z,219.05
2023-02-19T04:15:06.528Z,219.60
2023-02-19T04:16:06.590Z,218.43
2023-02-19T04:17:06.634Z,220.08
2023-02-19T04:18:06.730Z,217.79
2023-02-19T04:19:06.779Z,219.17
2023-02-19T04:20:06.827Z,218.21
2023-02-19T04:21:06.924Z,217.74
2023-02-19T04:22:06.977Z,217.78
2023-02-19T04:23:07.077Z,216.89
2023-02-19T04:24:07.105Z,218.74
2023-02-19T04:25:07.177Z,219.65
2023-02-19T04:26:07.265Z,218.30
2023-02-19T04:27:07.324Z,214.80
2023-02-19T04:33:07.733Z,213.86
2023-02-19T04:34:07.797Z,213.33
2023-02-19T04:35:07.874Z,216.89
2023-02-19T04:36:07.951Z,217.83
2023-02-19T04:37:08.019Z,217.88
2023-02-19T04:38:08.049Z,216.30
2023-02-19T04:39:08.098Z,216.93
2023-02-19T04:40:08.184Z,214.65
2023-02-19T04:41:08.667Z,215.78
2023-02-19T04:42:08.335Z,215.26
2023-02-19T04:43:08.409Z,214.98
2023-02-19T04:44:08.435Z,216.99
2023-02-19T04:45:08.495Z,218.21
2023-02-19T04:46:08.593Z,215.05
2023-02-19T04:47:08.636Z,218.17
2023-02-19T04:48:08.716Z,214.35
2023-02-19T04:49:08.802Z,214.67
2023-02-19T04:50:08.854Z,215.56
2023-02-19T04:51:09.272Z,216.61
2023-02-19T04:52:08.959Z,213.31
2023-02-19T04:53:09.033Z,216.30
2023-02-19T04:54:09.064Z,214.76
2023-02-19T04:55:09.153Z,216.57
2023-02-19T04:56:09.206Z,212.78
2023-02-19T04:57:09.258Z,211.46
2023-02-19T04:58:09.305Z,213.94
2023-02-19T04:59:09.423Z,216.72
2023-02-19T05:00:09.421Z,213.83
2023-02-19T05:20:10.771Z,213.25
2023-02-19T05:22:10.918Z,213.56
2023-02-19T05:23:10.984Z,209.09
2023-02-19T05:24:11.053Z,213.43
2023-02-19T05:25:11.140Z,211.60
2023-02-19T05:26:11.205Z,209.85
2023-02-19T05:27:11.219Z,211.15
2023-02-19T05:28:11.263Z,210.71
2023-02-19T05:29:11.328Z,208.94
2023-02-19T05:30:11.520Z,208.10
2023-02-19T05:31:11.993Z,212.61
2023-02-19T05:32:11.579Z,211.50
2023-02-19T05:33:11.625Z,210.79
2023-02-19T05:34:11.688Z,212.78
2023-02-19T05:35:11.745Z,209.87
2023-02-19T05:36:11.840Z,210.08
2023-02-19T05:37:11.918Z,208.92
2023-02-19T05:38:11.945Z,211.19
2023-02-19T05:39:12.020Z,207.95
2023-02-19T05:40:12.066Z,209.35
2023-02-19T05:41:12.517Z,210.28
2023-02-19T05:42:12.193Z,209.43
2023-02-19T05:43:12.285Z,208.94
2023-02-19T05:44:12.341Z,208.95
2023-02-19T05:45:12.402Z,208.39
2023-02-19T05:46:12.552Z,206.65
2023-02-19T05:49:12.653Z,208.82
2023-02-19T05:50:12.726Z,208.59
2023-02-19T05:51:12.955Z,207.01
2023-02-19T05:52:12.840Z,207.51
2023-02-19T05:53:12.904Z,206.15
2023-02-19T05:54:12.982Z,207.28
2023-02-19T05:55:13.049Z,206.72
2023-02-19T05:56:13.110Z,207.56
2023-02-19T05:57:13.171Z,205.71
2023-02-19T08:27:22.669Z,201.11
2023-02-19T08:28:22.972Z,197.18
2023-02-19T08:29:22.791Z,197.26
2023-02-19T08:30:22.891Z,198.87
2023-02-19T08:31:22.990Z,198.73
2023-02-19T08:32:22.965Z,200.57
2023-02-19T08:33:23.025Z,198.80
2023-02-19T08:34:23.082Z,200.99
2023-02-19T08:35:23.131Z,199.41
2023-02-19T08:36:23.219Z,201.87
2023-02-19T08:37:23.247Z,201.50
2023-02-19T08:38:23.577Z,201.06
2023-02-19T08:39:23.370Z,200.51
2023-02-19T08:40:23.438Z,199.99
2023-02-19T08:41:23.483Z,200.21
2023-02-19T08:42:23.569Z,198.35
2023-02-19T08:43:23.603Z,200.09
2023-02-19T08:44:23.674Z,199.34
2023-02-19T08:45:23.748Z,201.61
2023-02-19T08:46:23.799Z,201.13
2023-02-19T08:47:23.850Z,200.74
2023-02-19T08:48:23.913Z,201.97
2023-02-19T08:49:23.972Z,196.89
2023-02-19T08:50:24.010Z,197.90
2023-02-19T08:51:24.091Z,200.40
2023-02-19T08:52:24.137Z,201.49
2023-02-19T08:53:24.209Z,201.37
2023-02-19T08:54:24.257Z,202.16
2023-02-19T08:55:24.300Z,200.23
2023-02-19T08:56:24.373Z,198.86
2023-02-19T08:57:24.391Z,199.81
2023-02-19T08:58:24.497Z,200.25
2023-02-19T08:59:24.532Z,201.73
2023-02-19T09:00:24.700Z,197.71
2023-02-19T09:01:24.695Z,202.34
2023-02-19T09:02:24.714Z,199.96
2023-02-19T09:03:24.780Z,197.56
2023-02-19T09:04:24.847Z,201.94
2023-02-19T09:05:24.911Z,200.71
2023-02-19T09:06:24.995Z,198.32
2023-02-19T09:07:25.005Z,200.44
2023-02-19T09:08:25.106Z,200.11
2023-02-19T09:09:25.122Z,200.54
2023-02-19T09:10:25.198Z,202.26
2023-02-19T09:11:25.238Z,200.86
2023-02-19T09:12:25.297Z,200.05
2023-02-19T09:13:25.343Z,200.57
2023-02-19T09:14:25.396Z,198.80
2023-02-19T09:15:25.440Z,202.54
2023-02-19T09:16:25.499Z,199.75
2023-02-19T09:17:25.534Z,201.30
2023-02-19T09:18:25.647Z,201.48
2023-02-19T09:19:25.634Z,199.07
2023-02-19T09:20:25.702Z,201.36
2023-02-19T09:21:25.766Z,203.35
2023-02-19T09:22:25.841Z,206.39
2023-02-19T09:23:25.908Z,201.29
2023-02-19T09:24:25.921Z,202.08
2023-02-19T09:25:25.957Z,203.83
2023-02-19T09:26:26.026Z,202.76
2023-02-19T09:27:26.065Z,202.27
2023-02-19T09:28:27.047Z,200.39
2023-02-19T09:29:26.200Z,200.07
2023-02-19T09:30:26.275Z,202.64
2023-02-19T09:31:26.388Z,206.78
2023-02-19T09:32:26.350Z,201.54
2023-02-19T09:33:26.402Z,202.76
2023-02-19T09:34:26.451Z,203.21
2023-02-19T09:35:26.486Z,203.24
2023-02-19T09:36:26.536Z,202.57
2023-02-19T09:37:26.604Z,200.32
2023-02-19T09:38:26.618Z,205.09
2023-02-19T09:40:26.754Z,201.57
2023-02-19T09:41:26.775Z,204.71
2023-02-19T09:42:26.842Z,201.60
2023-02-19T09:43:26.908Z,205.53
2023-02-19T09:44:26.954Z,208.83
2023-02-19T09:45:26.979Z,203.69
2023-02-19T09:46:27.061Z,203.83
2023-02-19T09:47:27.114Z,204.26
2023-02-19T09:48:27.149Z,206.12
2023-02-19T09:49:27.204Z,205.09
2023-02-19T09:50:27.266Z,206.48
2023-02-19T09:51:27.320Z,207.17
2023-02-19T09:52:27.357Z,203.86
2023-02-19T09:53:27.418Z,205.45
2023-02-19T09:54:27.470Z,201.86
2023-02-19T09:55:27.516Z,208.76
2023-02-19T09:56:27.580Z,205.95
2023-02-19T09:57:27.607Z,203.70
2023-02-19T09:58:27.649Z,204.34
2023-02-19T09:59:27.715Z,209.09
2023-02-19T10:00:27.766Z,207.57
2023-02-19T10:01:27.880Z,205.06
2023-02-19T10:02:27.885Z,202.47
2023-02-19T10:03:27.924Z,203.32
2023-02-19T10:04:27.993Z,205.03
2023-02-19T10:05:28.027Z,202.36
2023-02-19T10:06:28.102Z,201.31
2023-02-19T10:07:28.130Z,200.81
2023-02-19T10:08:28.168Z,200.68
2023-02-19T10:09:28.243Z,202.65
2023-02-19T10:10:28.279Z,207.09
2023-02-19T10:11:28.323Z,204.64
2023-02-19T10:12:28.380Z,202.20
2023-02-19T10:13:28.399Z,202.98
2023-02-19T10:14:28.569Z,205.05
2023-02-19T10:15:28.512Z,207.69
2023-02-19T10:16:28.576Z,209.09
2023-02-19T10:17:28.622Z,205.64
2023-02-19T10:18:28.701Z,204.69
2023-02-19T10:19:28.754Z,205.71
2023-02-19T10:20:28.772Z,208.02
2023-02-19T10:21:28.855Z,208.06
2023-02-19T10:22:28.909Z,203.28
2023-02-19T10:23:28.953Z,203.14
2023-02-19T10:24:29.089Z,202.90
2023-02-19T10:25:29.071Z,203.42
2023-02-19T10:26:29.104Z,201.77
2023-02-19T10:27:29.132Z,198.95
2023-02-19T10:28:29.198Z,204.86
2023-02-19T10:29:29.260Z,205.02
2023-02-19T10:35:29.568Z,199.19
2023-02-19T10:36:31.896Z,199.00
2023-02-19T10:37:29.588Z,202.39
2023-02-19T10:38:29.599Z,200.06
2023-02-19T10:39:29.624Z,199.60
2023-02-19T10:40:29.607Z,203.35
2023-02-19T10:41:29.607Z,204.86
2023-02-19T10:42:29.618Z,204.71
2023-02-19T10:43:29.643Z,203.31
2023-02-19T10:44:29.646Z,201.80
2023-02-19T10:45:29.656Z,200.26
2023-02-19T10:46:29.681Z,199.79
2023-02-19T10:47:29.732Z,198.62
2023-02-19T10:48:29.664Z,201.73
2023-02-19T10:49:29.702Z,199.12
2023-02-19T10:50:29.696Z,196.46
2023-02-19T10:51:29.700Z,199.28
2023-02-19T10:52:29.762Z,199.86
2023-02-19T10:53:29.746Z,203.07
2023-02-19T10:54:29.777Z,199.90
2023-02-19T10:55:29.758Z,201.24
2023-02-19T10:56:29.744Z,202.74
2023-02-19T10:57:29.765Z,205.25
2023-02-19T10:58:29.781Z,196.88
2023-02-19T10:59:29.794Z,199.43
2023-02-19T11:00:29.784Z,203.58
2023-02-19T11:01:29.780Z,203.08
2023-02-19T11:02:29.828Z,197.97
2023-02-19T11:03:29.796Z,195.90
2023-02-19T11:04:29.862Z,197.28
2023-02-19T11:05:29.803Z,203.38
2023-02-19T11:06:29.832Z,203.35
2023-02-19T11:07:29.842Z,203.57
2023-02-19T11:08:29.861Z,203.36
2023-02-19T11:09:30.138Z,203.71
2023-02-19T11:10:29.857Z,206.92
2023-02-19T11:11:29.873Z,207.27
2023-02-19T11:12:30.608Z,205.74
2023-02-19T11:13:29.905Z,206.32
2023-02-19T11:14:29.875Z,201.02
2023-02-19T11:15:29.876Z,199.48
2023-02-19T11:16:29.946Z,203.78
2023-02-19T11:17:29.940Z,206.25
2023-02-19T11:18:29.937Z,204.48
2023-02-19T11:19:29.965Z,201.86
2023-02-19T11:20:29.944Z,203.84
2023-02-19T11:21:29.960Z,203.49
2023-02-19T12:00:31.006Z,205.02
2023-02-19T12:01:31.018Z,199.97
2023-02-19T12:02:31.026Z,205.02
2023-02-19T12:03:31.072Z,204.60
2023-02-19T12:04:31.110Z,195.80
2023-02-19T12:05:31.105Z,195.39
2023-02-19T12:06:31.165Z,199.08
2023-02-19T12:07:31.180Z,198.34
2023-02-19T12:08:31.194Z,197.56
2023-02-19T12:09:31.213Z,201.90
2023-02-19T12:10:31.252Z,209.15
2023-02-19T12:11:31.257Z,214.80
2023-02-19T12:12:31.287Z,190.74
2023-02-19T12:13:31.312Z,160.87
2023-02-19T12:14:31.355Z,178.69
2023-02-19T12:15:31.356Z,164.33
2023-02-19T12:16:31.434Z,185.59
2023-02-19T12:17:31.376Z,189.55
2023-02-19T12:18:31.835Z,163.71
2023-02-19T12:19:31.433Z,150.49
2023-02-19T12:20:31.988Z,138.46
2023-02-19T12:21:31.468Z,134.15
2023-02-19T12:22:31.498Z,132.06
2023-02-19T12:23:31.511Z,119.28
2023-02-19T12:24:31.527Z,94.07
2023-02-19T12:25:34.382Z,98.42
2023-02-19T12:26:31.532Z,114.62
2023-02-19T12:27:31.532Z,115.44
2023-02-19T12:28:31.587Z,89.65
2023-02-19T12:29:31.566Z,71.86
2023-02-19T12:30:31.628Z,84.63
2023-02-19T12:31:33.113Z,63.27
2023-02-19T12:32:31.616Z,57.37
2023-02-19T12:33:31.619Z,70.85
2023-02-19T12:34:31.614Z,53.02
2023-02-19T12:35:31.587Z,58.16
2023-02-19T12:36:31.599Z,62.45
2023-02-19T12:37:31.636Z,25.00
2023-02-19T12:38:31.619Z,26.11
2023-02-19T12:39:31.654Z,32.81
2023-02-19T12:40:31.680Z,40.06
2023-02-19T12:41:31.691Z,47.01
2023-02-19T12:43:31.699Z,25.12
2023-02-19T12:44:31.681Z,31.95
2023-02-19T12:45:31.710Z,39.14
2023-02-19T12:46:31.710Z,48.93
2023-02-19T12:47:31.716Z,50.33
2023-02-19T12:48:31.735Z,29.22
2023-02-19T12:49:31.764Z,10.39
2023-02-19T12:50:31.734Z,33.40
2023-02-19T12:51:31.749Z,50.70
2023-02-19T12:52:31.774Z,49.06
2023-02-19T12:53:31.763Z,28.69
2023-02-19T12:54:31.763Z,18.13
2023-02-19T12:55:31.780Z,30.42
2023-02-19T12:56:31.765Z,31.93
2023-02-19T12:57:31.852Z,48.86
2023-02-19T12:58:31.903Z,39.07
2023-02-19T12:59:31.959Z,25.00
2023-02-19T13:00:31.971Z,25.80
2023-02-19T13:01:32.115Z,29.76
2023-02-19T13:02:32.113Z,44.25
2023-02-19T13:03:32.137Z,63.72
2023-02-19T13:04:32.197Z,52.60
2023-02-19T13:05:32.199Z,44.10
2023-02-19T13:06:32.264Z,49.29
2023-02-19T13:07:32.306Z,48.87
2023-02-19T13:08:34.024Z,49.40
2023-02-19T13:09:32.355Z,42.54
2023-02-19T13:10:32.421Z,22.22
2023-02-19T13:11:32.507Z,26.54
2023-02-19T13:12:32.499Z,44.19
2023-02-19T13:13:32.575Z,57.89
2023-02-19T13:14:32.612Z,36.80
2023-02-19T13:15:32.608Z,46.70
2023-02-19T13:16:32.719Z,53.97
2023-02-19T13:17:32.762Z,40.34
2023-02-19T13:18:32.747Z,53.02
2023-02-19T13:19:32.827Z,40.25
2023-02-19T13:20:32.867Z,35.16
2023-02-19T13:21:35.059Z,49.52
2023-02-19T13:22:32.962Z,55.62
2023-02-19T13:23:32.999Z,70.87
2023-02-19T13:24:33.054Z,59.70
2023-02-19T13:25:33.055Z,51.99
2023-02-19T13:26:33.193Z,49.42
2023-02-19T13:27:33.166Z,36.78
2023-02-19T13:28:33.223Z,31.91
2023-02-19T13:29:33.248Z,43.20
2023-02-19T13:30:33.323Z,34.35
2023-02-19T13:31:33.382Z,36.59
2023-02-19T13:32:33.403Z,29.51
2023-02-19T13:33:33.427Z,39.04
2023-02-19T13:34:33.470Z,38.27
2023-02-19T13:35:33.519Z,32.11
2023-02-19T13:36:33.576Z,29.48
2023-02-19T13:37:33.620Z,46.44
2023-02-19T13:38:33.658Z,49.29
2023-02-19T13:39:33.711Z,52.11
2023-02-19T13:40:33.710Z,46.02
2023-02-19T13:41:33.784Z,36.17
2023-02-19T13:42:33.832Z,16.86
2023-02-19T13:43:33.834Z,31.81
2023-02-19T13:44:33.943Z,39.30
2023-02-19T13:45:33.958Z,30.58
2023-02-19T13:46:33.978Z,44.61
2023-02-19T13:47:34.025Z,42.99
2023-02-19T13:48:34.078Z,37.69
2023-02-19T13:49:34.105Z,38.98
2023-02-19T13:50:34.164Z,48.48
2023-02-19T13:51:34.214Z,40.79
2023-02-19T13:52:34.273Z,43.44
2023-02-19T13:53:34.314Z,56.39
2023-02-19T13:54:34.387Z,61.72
2023-02-19T13:55:34.399Z,50.05
2023-02-19T13:56:34.587Z,53.72
2023-02-19T13:57:34.476Z,50.56
2023-02-19T13:58:34.474Z,48.24
2023-02-19T13:59:34.573Z,44.66
2023-02-19T14:00:34.618Z,50.30
2023-02-19T14:01:34.698Z,69.27
2023-02-19T14:02:34.714Z,52.68
2023-02-19T14:03:34.725Z,36.39
2023-02-19T14:04:34.772Z,45.70
2023-02-19T14:08:34.946Z,52.36
2023-02-19T14:09:34.997Z,58.29
2023-02-19T14:10:35.043Z,38.24
2023-02-19T14:11:35.123Z,39.59
2023-02-19T14:12:35.126Z,41.15
2023-02-19T14:13:35.192Z,42.61
2023-02-19T14:14:35.264Z,46.35
2023-02-19T14:15:35.341Z,34.86
2023-02-19T14:16:35.298Z,25.20
2023-02-19T14:17:35.360Z,37.54
2023-02-19T14:18:35.440Z,32.32
2023-02-19T14:19:35.490Z,39.00
2023-02-19T14:20:35.524Z,44.08
2023-02-19T14:21:35.554Z,53.44
2023-02-19T14:22:35.607Z,56.59
2023-02-19T14:23:35.672Z,55.26
2023-02-19T14:24:35.710Z,58.04
2023-02-19T14:25:35.752Z,40.77
2023-02-19T14:26:35.825Z,41.57
2023-02-19T14:27:35.871Z,28.24
2023-02-19T14:28:35.910Z,23.44
2023-02-19T14:29:35.960Z,34.84
2023-02-19T14:30:36.079Z,41.90
2023-02-19T14:31:36.316Z,41.82
2023-02-19T14:32:36.131Z,54.24
2023-02-19T14:33:36.214Z,50.82
2023-02-19T14:34:36.235Z,45.01
2023-02-19T14:35:36.308Z,49.39
2023-02-19T14:36:36.365Z,52.57
2023-02-19T14:37:36.387Z,49.38
2023-02-19T14:38:36.468Z,52.02
2023-02-19T14:39:36.504Z,55.58
2023-02-19T14:40:36.557Z,57.72
2023-02-19T14:41:36.595Z,63.32
2023-02-19T14:42:36.650Z,48.63
2023-02-19T14:43:36.704Z,53.38
2023-02-19T14:44:36.748Z,63.19
2023-02-19T14:46:36.860Z,78.48
2023-02-19T14:47:36.856Z,56.96
2023-02-19T14:48:36.912Z,53.89
2023-02-19T14:49:36.944Z,63.74
2023-02-19T14:50:36.965Z,77.65
2023-02-19T14:51:37.032Z,90.48
2023-02-19T14:52:37.069Z,87.55
2023-02-19T14:53:37.138Z,84.83
2023-02-19T14:54:37.171Z,85.85
2023-02-19T14:55:37.222Z,81.30
2023-02-19T14:56:37.289Z,77.08
2023-02-19T14:57:37.342Z,76.83
2023-02-19T14:58:37.372Z,83.45
2023-02-19T14:59:37.433Z,86.26
2023-02-19T15:00:37.525Z,82.68
2023-02-19T15:01:37.634Z,80.85
2023-02-19T15:02:37.582Z,91.55
2023-02-19T15:03:37.648Z,98.46
2023-02-19T15:04:37.734Z,94.35
2023-02-19T15:05:37.734Z,97.08
2023-02-19T15:06:37.744Z,95.74
2023-02-19T15:07:37.804Z,104.32
2023-02-19T15:08:37.875Z,98.14
2023-02-19T15:09:37.903Z,89.65
2023-02-19T15:10:37.935Z,88.51
2023-02-19T15:11:37.994Z,98.35
2023-02-19T15:12:38.052Z,103.63
2023-02-19T15:13:38.108Z,104.88
2023-02-19T15:14:38.124Z,82.05
2023-02-19T15:15:38.218Z,90.11
2023-02-19T15:16:38.273Z,92.29
2023-02-19T15:17:38.309Z,99.18
2023-02-19T15:18:38.371Z,102.77
2023-02-19T15:19:38.438Z,106.44
2023-02-19T15:20:38.489Z,111.49
2023-02-19T15:21:38.517Z,95.59
2023-02-19T15:22:38.565Z,94.02
2023-02-19T15:23:38.635Z,104.89
2023-02-19T15:24:38.642Z,118.86
2023-02-19T15:25:38.732Z,119.98
2023-02-19T15:26:38.754Z,115.32
2023-02-19T15:27:38.806Z,91.09
2023-02-19T15:28:38.845Z,74.15
2023-02-19T15:29:38.953Z,76.67
2023-02-19T15:30:38.999Z,100.46
2023-02-19T15:31:39.121Z,112.68
2023-02-19T15:32:39.097Z,112.02
2023-02-19T15:33:39.131Z,121.00
2023-02-19T15:34:39.167Z,98.56
2023-02-19T15:35:39.250Z,101.28
2023-02-19T15:36:39.279Z,76.30
2023-02-19T15:37:39.332Z,82.30
2023-02-19T15:38:39.365Z,107.13
2023-02-19T15:39:39.474Z,116.46
2023-02-19T15:40:39.513Z,116.14
2023-02-19T15:41:39.556Z,94.16
2023-02-19T15:42:39.603Z,83.38
2023-02-19T15:43:39.648Z,100.56
2023-02-19T15:44:39.725Z,108.11
2023-02-19T15:45:39.769Z,107.42
2023-02-19T15:46:40.009Z,110.11
2023-02-19T15:47:39.904Z,111.37
2023-02-19T15:48:39.965Z,113.32
2023-02-19T15:49:40.025Z,111.55
2023-02-19T15:50:40.068Z,112.83
2023-02-19T15:51:40.134Z,122.99
2023-02-19T15:52:40.759Z,122.96
2023-02-19T15:53:40.250Z,123.20
2023-02-19T15:54:40.328Z,132.70
2023-02-19T15:55:40.375Z,135.54
2023-02-19T15:56:40.432Z,132.70
2023-02-19T15:57:40.485Z,140.39
2023-02-19T15:58:40.584Z,147.98
2023-02-19T15:59:40.627Z,148.07
2023-02-19T16:00:40.655Z,149.97
2023-02-19T16:01:40.771Z,155.93
2023-02-19T16:02:40.828Z,155.00
2023-02-19T16:03:40.782Z,161.92
2023-02-19T16:04:40.873Z,169.63
2023-02-19T16:05:40.911Z,173.42
2023-02-19T16:06:40.973Z,185.00
2023-02-19T16:07:41.050Z,187.01
2023-02-19T16:08:41.102Z,193.00
2023-02-19T16:09:41.124Z,188.40
2023-02-19T16:10:41.171Z,188.51
2023-02-19T16:11:41.246Z,186.35
2023-02-19T16:12:41.305Z,186.93
2023-02-19T16:14:41.425Z,188.20
2023-02-19T16:15:41.453Z,189.68
2023-02-19T16:16:41.551Z,189.95
2023-02-19T16:17:41.574Z,194.65
2023-02-19T16:18:41.675Z,196.51
2023-02-19T16:19:41.708Z,199.49
2023-02-19T16:20:41.759Z,199.75
2023-02-19T16:21:41.802Z,202.09
2023-02-19T16:22:41.851Z,208.44
2023-02-19T16:23:41.895Z,209.23
2023-02-19T16:24:41.966Z,212.79
2023-02-19T16:25:42.374Z,217.54
2023-02-19T16:26:42.070Z,221.47
2023-02-19T16:27:42.106Z,223.41
2023-02-19T16:28:42.211Z,233.86
2023-02-19T16:29:42.212Z,236.42
2023-02-19T16:30:42.331Z,228.67
2023-02-19T16:31:42.439Z,228.38
2023-02-19T16:32:42.381Z,227.71
2023-02-19T16:33:42.441Z,229.08
2023-02-19T16:35:42.526Z,231.71
2023-02-19T16:36:42.592Z,229.98
2023-02-19T16:37:42.631Z,232.03
2023-02-19T16:38:42.701Z,234.64
2023-02-19T16:39:42.785Z,233.68